CDT,Max TemperatureF,Mean TemperatureF,Min TemperatureF,Max Dew PointF,MeanDew PointF,Min DewpointF,Max Humidity, Mean Humidity, Min Humidity, Max Sea Level PressureIn, Mean Sea Level PressureIn, Min Sea Level PressureIn, Max VisibilityMiles, Mean VisibilityMiles, Min VisibilityMiles, Max Wind SpeedMPH, Mean Wind SpeedMPH, Max Gust SpeedMPH,PrecipitationIn, CloudCover, Events, WindDirDegrees
2013-6-1,77,70,63,72,64,57,100,87,73,29.94,29.84,29.73,10,7,2,17,6,22,0.99,5,Rain-Thunderstorm,206
2013-6-2,71,63,55,58,55,53,93,75,57,30.03,29.99,29.95,10,10,9,6,2,,0.01,5,,350
2013-6-3,75,65,55,57,55,52,93,70,46,30.06,30.00,29.93,10,10,8,7,2,,0.00,3,,93
2013-6-4,80,69,59,60,57,54,87,70,50,30.02,29.97,29.91,10,9,7,8,5,,0.00,1,,111
2013-6-5,82,70,62,64,61,58,90,75,52,29.97,29.90,29.82,10,8,6,7,3,,0.00,3,,114
2013-6-6,77,68,60,63,59,57,94,77,53,29.90,29.88,29.84,9,7,3,14,2,29,0.00,4,,337
2013-6-7,77,64,54,58,54,50,93,66,43,29.94,29.91,29.87,10,10,8,8,3,,0.00,3,,327
2013-6-8,81,68,55,60,55,51,97,74,38,29.97,29.93,29.87,10,7,0,9,1,,0.00,2,Fog,150
2013-6-9,79,71,63,68,62,55,93,76,50,29.91,29.86,29.81,10,7,1,7,3,,0.15,3,Rain-Thunderstorm,183
2013-6-10,91,76,62,66,63,57,93,64,39,29.90,29.86,29.83,10,10,7,8,2,,0.00,1,,254
2013-6-11,93,81,69,69,65,61,81,60,33,29.99,29.94,29.91,10,10,9,9,3,,0.00,0,,206
2013-6-12,91,82,72,69,68,65,87,63,43,29.98,29.92,29.86,10,8,7,12,5,21,0.00,0,,224
2013-6-13,88,80,71,70,66,60,79,63,44,29.99,29.94,29.88,10,9,7,7,4,,0.00,1,,310
2013-6-14,87,75,64,65,63,62,90,67,48,30.04,30.00,29.95,10,9,7,6,2,,0.00,0,,131
2013-6-15,87,74,64,68,63,60,87,65,51,30.03,29.99,29.94,10,9,8,9,3,,0.00,0,,139
2013-6-16,86,76,66,71,67,62,94,79,55,30.01,29.96,29.91,10,8,2,10,2,20,0.53,2,Rain-Thunderstorm,193
2013-6-17,80,71,64,70,66,63,100,87,66,29.96,29.91,29.86,10,7,1,20,3,26,0.31,5,Rain-Thunderstorm,126
2013-6-18,87,74,63,68,62,60,97,73,43,30.00,29.96,29.92,10,9,5,5,1,,0.01,0,,167
2013-6-19,88,74,61,64,61,57,93,65,36,30.04,30.00,29.96,10,10,9,6,1,,0.00,0,,152
2013-6-20,88,78,68,68,65,63,84,65,46,30.09,30.05,30.01,10,9,8,10,3,16,0.00,0,,161
2013-6-21,90,80,71,72,69,65,81,69,52,30.10,30.05,30.01,9,8,7,12,5,,0.00,0,,159
2013-6-22,90,81,73,72,69,64,90,68,49,30.09,30.03,29.96,8,8,6,10,5,18,0.00,1,Rain-Thunderstorm,167
2013-6-23,90,79,69,72,69,66,90,69,46,30.04,29.99,29.94,8,7,5,12,5,17,0.00,1,,161
2013-6-24,91,81,72,71,69,67,87,69,48,30.07,30.01,29.96,9,7,5,9,5,16,0.00,1,,173
2013-6-25,90,82,73,71,69,67,87,69,48,29.98,29.93,29.85,9,8,7,13,6,18,0.00,0,,186
2013-6-26,93,83,73,73,71,68,85,66,47,29.88,29.85,29.81,9,8,7,10,6,20,0.00,0,,212
2013-6-27,100,86,73,74,72,67,93,65,34,29.92,29.88,29.83,9,8,6,6,3,,0.00,0,,0
2013-6-28,91,80,70,73,64,56,90,60,33,29.88,29.82,29.76,10,10,8,12,3,21,0.12,1,Thunderstorm,356
2013-6-29,87,76,66,60,54,47,81,48,27,29.82,29.77,29.73,10,10,10,13,3,25,0.00,1,,330
2013-6-30,79,70,64,59,57,55,80,64,50,29.91,29.85,29.78,10,10,9,8,4,,0.00,5,,339